Eden, Vermont
Current Conditions -  °F | °C
As of 2:54 PM on Thursday 30 Oct 2014 (Local Time) from KMVL Reporting Station
Broken Clouds Broken Clouds  
Wind Chill: 44°   Ceiling: 3800
Heat Index: 47°   Visibility: 10mi
Dew Point: 30°   Wind: 6mph
Humidity: 52%   Direction: 310°NW
Pressure: 29.96"   Gusts: NA
Location:  44.71°N, 72.55°W
Report Text: KMVL 301854Z AUTO 31005KT 10SM BKN038 08/M01 A2996 RMK AO2 SLP150 T00831011
Loading
Personal Weather Stations






























Interactive Weather Map
Tropical Storm Tracking
New forecast layout! Learn more

10-Day Weather Forecast

Advertisements
Track Severe Weather on mobile